createdAt,value
2023-05-13T00:00:26.953Z,11.17
2023-05-13T00:03:12.455Z,11.12
2023-05-13T00:05:57.929Z,11.08
2023-05-13T00:08:43.848Z,11.03
2023-05-13T00:11:29.632Z,11.01
2023-05-13T00:14:15.505Z,11.01
2023-05-13T00:17:03.606Z,10.98
2023-05-13T00:19:49.030Z,10.97
2023-05-13T00:22:35.964Z,11.00
2023-05-13T00:25:21.079Z,10.99
2023-05-13T00:28:06.636Z,10.98
2023-05-13T00:30:52.441Z,10.95
2023-05-13T00:33:38.601Z,10.91
2023-05-13T00:36:26.821Z,10.89
2023-05-13T00:39:13.569Z,10.84
2023-05-13T00:41:58.918Z,10.79
2023-05-13T00:44:44.569Z,10.81
2023-05-13T00:47:30.455Z,10.84
2023-05-13T00:50:15.828Z,10.84
2023-05-13T00:53:03.047Z,10.80
2023-05-13T00:55:48.743Z,10.76
2023-05-13T00:58:34.416Z,10.72
2023-05-13T01:02:01.926Z,10.64
2023-05-13T01:04:53.635Z,10.55
2023-05-13T01:07:49.854Z,10.53
2023-05-13T01:10:49.502Z,10.48
2023-05-13T01:13:42.500Z,10.45
2023-05-13T01:16:45.861Z,10.45
2023-05-13T01:19:54.036Z,10.40
2023-05-13T01:22:39.889Z,10.35
2023-05-13T01:25:26.220Z,10.37
2023-05-13T01:28:11.725Z,10.40
2023-05-13T01:30:58.091Z,10.43
2023-05-13T01:33:44.416Z,10.47
2023-05-13T01:36:31.569Z,10.47
2023-05-13T01:39:19.607Z,10.47
2023-05-13T01:42:05.789Z,10.49
2023-05-13T01:44:51.733Z,10.46
2023-05-13T01:47:37.214Z,10.46
2023-05-13T01:50:23.110Z,10.44
2023-05-13T01:53:08.946Z,10.40
2023-05-13T01:55:54.527Z,10.34
2023-05-13T01:58:40.548Z,10.30
2023-05-13T02:01:26.342Z,10.27
2023-05-13T02:04:11.931Z,10.29
2023-05-13T02:07:00.302Z,10.29
2023-05-13T02:09:48.138Z,10.28
2023-05-13T02:12:33.421Z,10.26
2023-05-13T02:15:18.990Z,10.25
2023-05-13T02:18:04.672Z,10.24
2023-05-13T02:20:50.689Z,10.23
2023-05-13T02:23:36.064Z,10.22
2023-05-13T02:26:21.598Z,10.18
2023-05-13T02:29:07.641Z,10.15
2023-05-13T02:31:55.114Z,10.14
2023-05-13T02:34:41.048Z,10.14
2023-05-13T02:37:26.862Z,10.14
2023-05-13T02:40:16.596Z,10.14
2023-05-13T02:43:04.409Z,10.13
2023-05-13T02:46:04.534Z,10.10
2023-05-13T02:48:50.574Z,10.09
2023-05-13T02:51:36.153Z,10.10
2023-05-13T02:54:22.820Z,10.10
2023-05-13T02:57:08.359Z,10.11
2023-05-13T02:59:54.056Z,10.12
2023-05-13T03:02:39.692Z,10.14
2023-05-13T03:05:26.443Z,10.16
2023-05-13T03:08:13.719Z,10.19
2023-05-13T03:11:00.857Z,10.21
2023-05-13T03:13:46.246Z,10.25
2023-05-13T03:16:33.035Z,10.28
2023-05-13T03:19:18.326Z,10.33
2023-05-13T03:22:05.554Z,10.39
2023-05-13T03:24:51.349Z,10.44
2023-05-13T03:27:38.430Z,10.48
2023-05-13T03:30:24.210Z,10.53
2023-05-13T03:33:20.536Z,10.57
2023-05-13T03:36:06.606Z,10.62
2023-05-13T03:38:53.266Z,10.68
2023-05-13T03:41:39.317Z,10.76
2023-05-13T03:44:25.060Z,10.84
2023-05-13T03:47:10.774Z,10.93
2023-05-13T03:49:56.917Z,11.01
2023-05-13T03:52:44.909Z,11.09
2023-05-13T03:55:32.490Z,11.16
2023-05-13T03:58:22.042Z,11.24
2023-05-13T04:01:07.853Z,11.32
2023-05-13T04:03:54.415Z,11.39
2023-05-13T04:06:39.666Z,11.48
2023-05-13T04:09:25.351Z,11.55
2023-05-13T04:12:10.735Z,11.61
2023-05-13T04:14:56.109Z,11.68
2023-05-13T04:17:42.604Z,11.76
2023-05-13T04:20:28.654Z,11.82
2023-05-13T04:23:14.286Z,11.89
2023-05-13T04:25:59.685Z,11.97
2023-05-13T04:28:45.142Z,12.05
2023-05-13T04:31:31.327Z,12.15
2023-05-13T04:34:17.020Z,12.29
2023-05-13T04:37:02.772Z,12.42
2023-05-13T04:39:49.497Z,12.57
2023-05-13T04:42:36.803Z,12.73
2023-05-13T04:45:23.692Z,12.91
2023-05-13T04:48:09.754Z,13.09
2023-05-13T04:50:55.727Z,13.25
2023-05-13T04:53:41.729Z,13.37
2023-05-13T04:56:28.159Z,13.47
2023-05-13T04:59:14.245Z,13.57
2023-05-13T05:01:59.785Z,13.66
2023-05-13T05:04:45.787Z,13.76
2023-05-13T05:07:33.509Z,13.82
2023-05-13T05:10:19.280Z,13.89
2023-05-13T05:13:12.639Z,13.98
2023-05-13T05:15:57.842Z,14.05
2023-05-13T05:18:43.852Z,14.12
2023-05-13T05:21:29.482Z,14.19
2023-05-13T05:24:15.139Z,14.27
2023-05-13T05:27:00.547Z,14.38
2023-05-13T05:29:46.111Z,14.51
2023-05-13T05:32:32.188Z,14.64
2023-05-13T05:35:19.247Z,14.79
2023-05-13T05:38:06.430Z,14.94
2023-05-13T05:40:52.383Z,15.05
2023-05-13T05:43:38.129Z,15.17
2023-05-13T05:46:23.773Z,15.31
2023-05-13T05:49:09.498Z,15.45
2023-05-13T05:51:55.209Z,15.60
2023-05-13T05:54:40.988Z,15.74
2023-05-13T05:57:27.367Z,15.88
2023-05-13T06:00:16.529Z,16.02
2023-05-13T06:03:01.984Z,16.15
2023-05-13T06:05:50.304Z,16.32
2023-05-13T06:08:37.334Z,16.49
2023-05-13T06:11:22.979Z,16.63
2023-05-13T06:14:08.795Z,16.79
2023-05-13T06:16:55.969Z,16.94
2023-05-13T06:19:44.679Z,17.09
2023-05-13T06:22:30.162Z,17.21
2023-05-13T06:25:16.463Z,17.33
2023-05-13T06:28:03.127Z,17.42
2023-05-13T06:30:48.734Z,17.51
2023-05-13T06:33:34.244Z,17.60
2023-05-13T06:36:21.394Z,17.70
2023-05-13T06:39:06.884Z,17.80
2023-05-13T06:41:54.186Z,17.89
2023-05-13T06:44:41.161Z,18.00
2023-05-13T06:47:26.659Z,18.07
2023-05-13T06:50:12.253Z,18.15
2023-05-13T06:52:58.117Z,18.24
2023-05-13T06:55:44.780Z,18.36
2023-05-13T06:58:31.448Z,18.47
2023-05-13T07:01:17.097Z,18.57
2023-05-13T07:04:03.022Z,18.68
2023-05-13T07:06:48.525Z,18.82
2023-05-13T07:09:34.064Z,18.96
2023-05-13T07:12:19.616Z,19.06
2023-05-13T07:15:06.274Z,19.14
2023-05-13T07:17:51.541Z,19.22
2023-05-13T07:20:37.079Z,19.29
2023-05-13T07:23:23.638Z,19.36
2023-05-13T07:26:09.331Z,19.47
2023-05-13T07:28:56.356Z,19.51
2023-05-13T07:31:41.817Z,19.59
2023-05-13T07:34:27.197Z,19.68
2023-05-13T07:37:12.865Z,19.85
2023-05-13T07:39:58.302Z,19.96
2023-05-13T07:42:43.786Z,20.01
2023-05-13T07:45:29.252Z,20.11
2023-05-13T07:48:14.870Z,20.12
2023-05-13T07:51:01.043Z,20.18
2023-05-13T07:53:49.125Z,20.30
2023-05-13T07:56:34.481Z,20.40
2023-05-13T07:59:22.235Z,20.47
2023-05-13T08:02:08.240Z,20.52
2023-05-13T08:04:54.167Z,20.54
2023-05-13T08:07:39.911Z,20.64
2023-05-13T08:10:25.280Z,20.73
2023-05-13T08:13:10.824Z,20.73
2023-05-13T08:15:59.229Z,20.75
2023-05-13T08:18:44.511Z,20.75
2023-05-13T08:21:29.810Z,20.80
2023-05-13T08:24:15.397Z,20.90
2023-05-13T08:27:00.983Z,20.94
2023-05-13T08:29:46.213Z,21.00
2023-05-13T08:32:31.880Z,21.15
2023-05-13T08:35:17.251Z,21.31
2023-05-13T08:38:06.076Z,21.44
2023-05-13T08:40:53.427Z,21.64
2023-05-13T08:43:40.073Z,21.82
2023-05-13T08:46:28.342Z,21.95
2023-05-13T08:49:13.997Z,22.11
2023-05-13T08:52:00.217Z,22.21
2023-05-13T08:54:48.229Z,22.28
2023-05-13T08:57:34.135Z,22.29
2023-05-13T09:00:21.390Z,22.25
2023-05-13T09:03:08.707Z,22.35
2023-05-13T09:05:54.469Z,22.50
2023-05-13T09:08:40.420Z,22.67
2023-05-13T09:11:27.823Z,22.85
2023-05-13T09:14:13.716Z,23.03
2023-05-13T09:17:00.529Z,23.16
2023-05-13T09:19:47.055Z,23.20
2023-05-13T09:22:32.787Z,23.07
2023-05-13T09:25:20.969Z,22.88
2023-05-13T09:28:08.254Z,22.72
2023-05-13T09:30:56.320Z,22.46
2023-05-13T09:33:51.885Z,22.27
2023-05-13T09:36:37.727Z,22.22
2023-05-13T09:39:23.757Z,22.26
2023-05-13T09:42:16.154Z,22.30
2023-05-13T09:45:05.890Z,22.34
2023-05-13T09:47:53.927Z,22.27
2023-05-13T09:50:49.193Z,22.38
2023-05-13T09:53:34.765Z,22.58
2023-05-13T09:56:23.473Z,22.79
2023-05-13T09:59:08.982Z,23.01
2023-05-13T10:01:56.563Z,23.15
2023-05-13T10:04:43.110Z,23.26
2023-05-13T10:07:30.120Z,23.25
2023-05-13T10:10:15.398Z,23.26
2023-05-13T10:13:10.186Z,23.30
2023-05-13T10:15:56.383Z,23.35
2023-05-13T10:18:41.912Z,23.37
2023-05-13T10:21:27.837Z,23.41
2023-05-13T10:24:13.698Z,23.51
2023-05-13T10:27:01.316Z,23.68
2023-05-13T10:29:47.620Z,23.83
2023-05-13T10:32:34.225Z,24.00
2023-05-13T10:35:22.830Z,24.13
2023-05-13T10:38:24.865Z,24.24
2023-05-13T10:41:38.796Z,24.34
2023-05-13T10:44:24.411Z,24.41
2023-05-13T10:47:10.746Z,24.51
2023-05-13T10:49:57.873Z,24.52
2023-05-13T10:52:47.316Z,24.54
2023-05-13T10:55:40.749Z,24.60
2023-05-13T10:58:31.716Z,24.53
2023-05-13T11:01:43.323Z,24.58
2023-05-13T11:04:29.613Z,24.62
2023-05-13T11:07:16.134Z,24.70
2023-05-13T11:10:01.764Z,24.66
2023-05-13T11:13:16.614Z,24.51
2023-05-13T11:16:05.847Z,24.37
2023-05-13T11:18:52.397Z,24.20
2023-05-13T11:21:40.792Z,24.04
2023-05-13T11:24:26.272Z,23.92
2023-05-13T11:27:19.306Z,23.77
2023-05-13T11:30:21.467Z,23.63
2023-05-13T11:33:11.702Z,23.50
2023-05-13T11:35:57.910Z,23.44
2023-05-13T11:38:43.506Z,23.52
2023-05-13T11:41:32.307Z,23.62
2023-05-13T11:44:21.310Z,23.76
2023-05-13T11:47:07.645Z,23.90
2023-05-13T11:49:53.155Z,24.05
2023-05-13T11:52:38.872Z,24.22
2023-05-13T11:55:28.676Z,24.40
2023-05-13T11:58:15.748Z,24.58
2023-05-13T12:01:01.114Z,24.75
2023-05-13T12:03:47.093Z,24.90
2023-05-13T12:06:32.951Z,25.10
2023-05-13T12:09:22.901Z,25.32
2023-05-13T12:12:08.736Z,25.42
2023-05-13T12:14:56.166Z,25.40
2023-05-13T12:17:42.484Z,25.27
2023-05-13T12:20:27.536Z,24.92
2023-05-13T12:23:13.546Z,24.75
2023-05-13T12:26:00.302Z,24.82
2023-05-13T12:28:45.697Z,24.78
2023-05-13T12:31:31.189Z,24.67
2023-05-13T12:34:30.252Z,24.65
2023-05-13T12:37:17.639Z,24.52
2023-05-13T12:40:10.556Z,24.31
2023-05-13T12:42:58.154Z,23.99
2023-05-13T12:45:46.840Z,23.63
2023-05-13T12:48:32.968Z,23.30
2023-05-13T12:51:18.432Z,23.07
2023-05-13T12:54:04.121Z,22.87
2023-05-13T12:56:49.737Z,22.56
2023-05-13T12:59:35.918Z,22.34
2023-05-13T13:02:23.537Z,22.21
2023-05-13T13:05:08.979Z,22.03
2023-05-13T13:07:54.288Z,21.89
2023-05-13T13:10:39.616Z,21.78
2023-05-13T13:13:25.045Z,21.67
2023-05-13T13:16:11.139Z,21.52
2023-05-13T13:18:59.177Z,21.41
2023-05-13T13:21:46.810Z,21.27
2023-05-13T13:24:33.361Z,21.12
2023-05-13T13:27:19.274Z,21.01
2023-05-13T13:30:05.531Z,20.89
2023-05-13T13:32:50.948Z,20.70
2023-05-13T13:35:36.396Z,20.58
2023-05-13T13:38:21.860Z,20.46
2023-05-13T13:41:07.198Z,20.30
2023-05-13T13:43:52.570Z,20.15
2023-05-13T13:46:38.216Z,19.99
2023-05-13T13:49:24.558Z,19.87
2023-05-13T13:52:10.091Z,19.76
2023-05-13T13:54:55.649Z,19.68
2023-05-13T13:57:42.466Z,19.61
2023-05-13T14:00:28.035Z,19.49
2023-05-13T14:03:13.486Z,19.40
2023-05-13T14:05:58.962Z,19.37
2023-05-13T14:08:45.391Z,19.31
2023-05-13T14:11:31.642Z,19.23
2023-05-13T14:14:17.155Z,19.17
2023-05-13T14:17:02.555Z,19.12
2023-05-13T14:19:51.208Z,19.08
2023-05-13T14:22:36.288Z,19.01
2023-05-13T14:25:21.982Z,19.00
2023-05-13T14:28:07.580Z,18.97
2023-05-13T14:30:55.544Z,18.92
2023-05-13T14:33:41.323Z,18.90
2023-05-13T14:36:27.308Z,18.89
2023-05-13T14:39:12.906Z,18.88
2023-05-13T14:41:58.558Z,18.87
2023-05-13T14:44:43.874Z,18.86
2023-05-13T14:47:29.621Z,18.87
2023-05-13T14:50:15.372Z,18.88
2023-05-13T14:53:00.788Z,18.87
2023-05-13T14:55:46.513Z,18.87
2023-05-13T14:58:34.631Z,18.87
2023-05-13T15:01:20.297Z,18.88
2023-05-13T15:04:07.354Z,18.89
2023-05-13T15:06:55.525Z,18.89
2023-05-13T15:09:40.802Z,18.90
2023-05-13T15:12:26.350Z,18.94
2023-05-13T15:15:12.057Z,19.03
2023-05-13T15:17:57.421Z,19.23
2023-05-13T15:20:44.805Z,19.41
2023-05-13T15:23:30.146Z,19.66
2023-05-13T15:26:15.655Z,19.92
2023-05-13T15:29:00.983Z,20.05
2023-05-13T15:31:48.730Z,20.17
2023-05-13T15:34:34.325Z,20.32
2023-05-13T15:37:20.073Z,20.44
2023-05-13T15:40:06.396Z,20.54
2023-05-13T15:42:51.867Z,20.65
2023-05-13T15:45:39.517Z,20.80
2023-05-13T15:48:25.682Z,20.95
2023-05-13T15:51:11.614Z,21.06
2023-05-13T15:53:57.364Z,21.18
2023-05-13T15:56:42.832Z,21.25
2023-05-13T15:59:28.202Z,21.32
2023-05-13T16:02:13.734Z,21.36
2023-05-13T16:04:59.172Z,21.33
2023-05-13T16:07:45.484Z,21.26
2023-05-13T16:10:31.458Z,21.14
2023-05-13T16:13:16.882Z,21.02
2023-05-13T16:16:02.797Z,20.89
2023-05-13T16:18:48.725Z,20.75
2023-05-13T16:21:34.493Z,20.58
2023-05-13T16:24:20.102Z,20.41
2023-05-13T16:27:05.510Z,20.23
2023-05-13T16:29:51.526Z,20.08
2023-05-13T16:32:37.175Z,19.90
2023-05-13T16:35:22.503Z,19.71
2023-05-13T16:38:07.865Z,19.57
2023-05-13T16:40:53.341Z,19.42
2023-05-13T16:43:38.788Z,19.31
2023-05-13T16:46:24.129Z,19.19
2023-05-13T16:49:09.596Z,19.07
2023-05-13T16:51:55.048Z,18.97
2023-05-13T16:54:40.312Z,18.88
2023-05-13T16:57:25.723Z,18.76
2023-05-13T17:00:16.247Z,18.64
2023-05-13T17:03:03.330Z,18.56
2023-05-13T17:05:49.067Z,18.48
2023-05-13T17:08:34.653Z,18.39
2023-05-13T17:11:20.829Z,18.33
2023-05-13T17:14:06.440Z,18.27
2023-05-13T17:16:52.487Z,18.21
2023-05-13T17:19:38.269Z,18.17
2023-05-13T17:22:24.084Z,18.11
2023-05-13T17:25:09.966Z,18.05
2023-05-13T17:27:55.280Z,17.96
2023-05-13T17:30:41.813Z,17.89
2023-05-13T17:33:27.508Z,17.83
2023-05-13T17:36:13.045Z,17.75
2023-05-13T17:38:58.601Z,17.67
2023-05-13T17:41:43.790Z,17.63
2023-05-13T17:44:29.427Z,17.60
2023-05-13T17:47:16.547Z,17.55
2023-05-13T17:50:02.218Z,17.49
2023-05-13T17:52:47.616Z,17.44
2023-05-13T17:55:33.380Z,17.39
2023-05-13T17:58:18.913Z,17.36
2023-05-13T18:01:04.255Z,17.29
2023-05-13T18:03:49.682Z,17.24
2023-05-13T18:06:35.671Z,17.19
2023-05-13T18:09:21.036Z,17.14
2023-05-13T18:12:06.664Z,17.11
2023-05-13T18:14:52.332Z,17.09
2023-05-13T18:17:38.026Z,17.06
2023-05-13T18:20:23.815Z,17.00
2023-05-13T18:23:09.444Z,16.94
2023-05-13T18:25:56.275Z,16.88
2023-05-13T18:28:44.324Z,16.80
2023-05-13T18:31:34.052Z,16.70
2023-05-13T18:34:22.026Z,16.58
2023-05-13T18:37:08.157Z,16.49
2023-05-13T18:39:53.295Z,16.39
2023-05-13T18:42:38.913Z,16.32
2023-05-13T18:45:24.219Z,16.24
2023-05-13T18:48:10.046Z,16.15
2023-05-13T18:50:57.054Z,16.07
2023-05-13T18:53:43.104Z,16.00
2023-05-13T18:56:28.695Z,15.93
2023-05-13T18:59:14.311Z,15.86
2023-05-13T19:01:59.990Z,15.78
2023-05-13T19:04:45.524Z,15.70
2023-05-13T19:07:31.142Z,15.65
2023-05-13T19:10:17.514Z,15.60
2023-05-13T19:13:03.074Z,15.53
2023-05-13T19:15:48.927Z,15.47
2023-05-13T19:18:34.312Z,15.37
2023-05-13T19:21:21.402Z,15.30
2023-05-13T19:24:07.942Z,15.23
2023-05-13T19:26:53.570Z,15.17
2023-05-13T19:29:39.008Z,15.12
2023-05-13T19:32:24.522Z,15.05
2023-05-13T19:35:10.858Z,15.05
2023-05-13T19:37:56.380Z,15.04
2023-05-13T19:40:44.084Z,15.04
2023-05-13T19:43:29.864Z,15.02
2023-05-13T19:46:15.673Z,14.98
2023-05-13T19:49:01.295Z,14.94
2023-05-13T19:51:46.480Z,14.91
2023-05-13T19:54:32.102Z,14.88
2023-05-13T19:57:17.769Z,14.84
2023-05-13T20:00:05.048Z,14.79
2023-05-13T20:02:54.128Z,14.73
2023-05-13T20:05:42.690Z,14.67
2023-05-13T20:08:30.910Z,14.61
2023-05-13T20:11:17.044Z,14.52
2023-05-13T20:14:02.280Z,14.38
2023-05-13T20:16:47.855Z,14.24
2023-05-13T20:19:34.716Z,14.14
2023-05-13T20:22:21.858Z,14.02
2023-05-13T20:25:09.209Z,13.87
2023-05-13T20:27:54.465Z,13.78
2023-05-13T20:30:42.192Z,13.69
2023-05-13T20:33:27.987Z,13.58
2023-05-13T20:36:13.284Z,13.43
2023-05-13T20:38:58.644Z,13.31
2023-05-13T20:41:44.021Z,13.22
2023-05-13T20:44:29.410Z,13.16
2023-05-13T20:47:15.273Z,13.08
2023-05-13T20:50:00.773Z,13.05
2023-05-13T20:52:46.109Z,12.95
2023-05-13T20:55:31.498Z,12.88
2023-05-13T20:58:16.902Z,12.77
2023-05-13T21:01:03.793Z,12.67
2023-05-13T21:03:50.229Z,12.58
2023-05-13T21:06:36.106Z,12.52
2023-05-13T21:09:21.687Z,12.45
2023-05-13T21:12:07.173Z,12.36
2023-05-13T21:14:52.530Z,12.26
2023-05-13T21:17:38.249Z,12.19
2023-05-13T21:20:24.426Z,12.12
2023-05-13T21:23:10.410Z,12.08
2023-05-13T21:25:55.890Z,12.04
2023-05-13T21:28:41.525Z,11.99
2023-05-13T21:31:26.828Z,11.93
2023-05-13T21:34:13.508Z,11.86
2023-05-13T21:36:59.237Z,11.85
2023-05-13T21:39:44.614Z,11.84
2023-05-13T21:42:30.426Z,11.82
2023-05-13T21:45:15.919Z,11.85
2023-05-13T21:48:01.587Z,11.83
2023-05-13T21:50:46.739Z,11.77
2023-05-13T21:53:33.400Z,11.72
2023-05-13T21:56:19.147Z,11.66
2023-05-13T21:59:04.374Z,11.62
2023-05-13T22:01:49.952Z,11.54
2023-05-13T22:04:35.259Z,11.44
2023-05-13T22:07:20.696Z,11.33
2023-05-13T22:10:07.214Z,11.22
2023-05-13T22:12:52.960Z,11.14
2023-05-13T22:15:39.235Z,11.06
2023-05-13T22:18:25.073Z,10.97
2023-05-13T22:21:10.873Z,10.89
2023-05-13T22:23:56.230Z,10.82
2023-05-13T22:26:43.208Z,10.72
2023-05-13T22:29:28.360Z,10.61
2023-05-13T22:32:14.135Z,10.54
2023-05-13T22:35:00.199Z,10.46
2023-05-13T22:37:45.746Z,10.43
2023-05-13T22:40:31.305Z,10.39
2023-05-13T22:43:16.683Z,10.38
2023-05-13T22:46:02.387Z,10.32
2023-05-13T22:48:48.085Z,10.30
2023-05-13T22:51:33.599Z,10.28
2023-05-13T22:54:18.733Z,10.23
2023-05-13T22:57:04.278Z,10.18
2023-05-13T22:59:49.540Z,10.16
2023-05-13T23:02:35.074Z,10.13
2023-05-13T23:05:20.363Z,10.09
2023-05-13T23:08:06.026Z,10.07
2023-05-13T23:10:51.622Z,10.00
2023-05-13T23:13:38.739Z,9.92
2023-05-13T23:16:24.297Z,9.79
2023-05-13T23:19:10.302Z,9.67
2023-05-13T23:21:55.953Z,9.57
2023-05-13T23:24:41.200Z,9.49
2023-05-13T23:27:26.905Z,9.40
2023-05-13T23:30:12.856Z,9.36
2023-05-13T23:32:58.429Z,9.31
2023-05-13T23:35:43.803Z,9.29
2023-05-13T23:38:29.391Z,9.31
2023-05-13T23:41:15.158Z,9.34
2023-05-13T23:44:01.294Z,9.40
2023-05-13T23:46:47.352Z,9.44
2023-05-13T23:49:32.430Z,9.42
2023-05-13T23:52:20.225Z,9.44
2023-05-13T23:55:07.306Z,9.43
2023-05-13T23:57:52.458Z,9.44
